Time;durP1;ratioP1;P1;durP2;ratioP2;P2;SDS_P1;SDS_P2;PMS_P1;PMS_P2;Temp;Humidity;BMP_temperature;BMP_pressure;BME280_temperature;BME280_humidity;BME280_pressure;Samples;Min_cycle;Max_cycle;Signal;HPM_P1;HPM_P2
2023/06/23 00:00:28;;;;;;;9.30;9.00;;;21.10;99.90;;;;;;5124136;27;20247;-81
2023/06/23 00:02:57;;;;;;;9.48;9.18;;;21.00;99.90;;;;;;5127557;28;20235;-81
2023/06/23 00:05:29;;;;;;;9.80;9.50;;;21.00;99.90;;;;;;5127741;28;20229;-80
2023/06/23 00:07:57;;;;;;;10.60;10.30;;;20.80;99.90;;;;;;5128394;28;20237;-81
2023/06/23 00:10:25;;;;;;;10.30;10.00;;;20.80;99.90;;;;;;5132339;28;20244;-80
2023/06/23 00:12:54;;;;;;;10.30;10.00;;;20.70;99.90;;;;;;5133195;28;20284;-81
2023/06/23 00:15:25;;;;;;;10.35;10.05;;;20.60;99.90;;;;;;5130375;28;20232;-81
2023/06/23 00:17:55;;;;;;;10.32;10.02;;;20.60;99.90;;;;;;5128941;28;20267;-80
2023/06/23 00:20:25;;;;;;;10.27;9.98;;;20.50;99.90;;;;;;5127914;28;20275;-80
2023/06/23 00:22:56;;;;;;;10.23;9.93;;;20.40;99.90;;;;;;5127820;28;20217;-81
2023/06/23 00:25:24;;;;;;;10.20;9.90;;;20.40;99.90;;;;;;5127558;28;20249;-81
2023/06/23 00:27:53;;;;;;;10.05;9.75;;;20.30;99.90;;;;;;5128099;28;20263;-80
2023/06/23 00:30:23;;;;;;;10.75;10.45;;;20.30;99.90;;;;;;5127629;28;20244;-80
2023/06/23 00:32:52;;;;;;;10.40;10.10;;;20.30;99.90;;;;;;5128351;28;21059;-80
2023/06/23 00:35:22;;;;;;;10.10;9.80;;;20.20;99.90;;;;;;5128080;28;20224;-80
2023/06/23 00:37:50;;;;;;;10.25;9.95;;;20.20;99.90;;;;;;5139802;22;20248;-79
2023/06/23 00:43:17;;;;;;;10.23;9.93;;;20.10;99.90;;;;;;5104048;28;20233;-78
2023/06/23 00:45:46;;;;;;;10.57;10.27;;;20.10;99.90;;;;;;5104764;28;20222;-79
2023/06/23 00:48:16;;;;;;;10.70;10.40;;;20.00;99.90;;;;;;5104174;28;20306;-78
2023/06/23 00:50:45;;;;;;;10.50;10.20;;;20.00;99.90;;;;;;5103750;28;20237;-78
2023/06/23 00:53:14;;;;;;;10.38;10.07;;;20.00;99.90;;;;;;5104332;28;20222;-78
2023/06/23 00:55:52;;;;;;;10.60;10.30;;;20.00;99.90;;;;;;5104232;28;20260;-78
2023/06/23 00:58:21;;;;;;;10.38;10.07;;;20.00;99.90;;;;;;5103586;28;20249;-78
2023/06/23 01:00:51;;;;;;;10.25;9.95;;;20.00;99.90;;;;;;5102895;28;20268;-77
2023/06/23 01:05:54;;;;;;;10.40;10.10;;;19.90;99.90;;;;;;5130386;22;20249;-76
2023/06/23 01:08:33;;;;;;;10.52;10.23;;;19.90;99.90;;;;;;5078680;28;20230;-77
2023/06/23 01:11:09;;;;;;;10.20;9.90;;;19.90;99.90;;;;;;5079133;28;20321;-76
2023/06/23 01:13:44;;;;;;;10.32;10.02;;;19.90;99.90;;;;;;5079152;28;20230;-77
2023/06/23 01:16:17;;;;;;;10.20;9.90;;;19.80;99.90;;;;;;5080511;28;20337;-80
2023/06/23 03:04:59;;;;;;;9.57;9.27;;;19.80;99.90;;;;;;5060366;28;20328;-85
2023/06/23 03:07:43;;;;;;;10.50;10.20;;;19.80;99.90;;;;;;5063775;28;20249;-83
2023/06/23 03:13:20;;;;;;;10.23;9.93;;;19.80;99.90;;;;;;5063496;28;20227;-85
2023/06/23 03:38:49;;;;;;;11.40;11.05;;;19.20;99.90;;;;;;4749003;29;20242;-83
2023/06/23 03:41:19;;;;;;;11.20;10.90;;;19.20;99.90;;;;;;4880381;29;20276;-83
2023/06/23 03:43:59;;;;;;;11.18;10.88;;;19.10;99.90;;;;;;4967562;28;20266;-83
2023/06/23 04:52:24;;;;;;;11.02;10.73;;;19.10;99.90;;;;;;5155390;22;20239;-85
2023/06/23 06:16:21;;;;;;;9.82;9.52;;;19.00;99.90;;;;;;5042386;26;20273;-86
2023/06/23 06:19:06;;;;;;;9.80;9.50;;;19.00;99.90;;;;;;5042051;28;20231;-87
2023/06/23 06:25:02;;;;;;;10.10;9.80;;;19.00;99.90;;;;;;5044486;28;20223;-86
2023/06/23 06:28:31;;;;;;;10.00;9.70;;;19.00;99.90;;;;;;5040866;28;20223;-85
2023/06/23 06:31:02;;;;;;;10.13;9.82;;;19.00;99.90;;;;;;4981789;28;20296;-85
2023/06/23 06:36:53;;;;;;;9.80;9.50;;;19.00;99.90;;;;;;5030563;28;20266;-85
2023/06/23 06:39:32;;;;;;;9.93;9.63;;;18.90;99.90;;;;;;5041303;28;20249;-86
2023/06/23 06:42:20;;;;;;;9.85;9.55;;;18.80;99.90;;;;;;5041359;28;20223;-89
2023/06/23 06:45:24;;;;;;;10.00;9.70;;;18.80;99.90;;;;;;5041498;28;20223;-87
2023/06/23 06:54:44;;;;;;;9.90;9.60;;;18.80;99.90;;;;;;5001361;28;20314;-89
2023/06/23 07:00:13;;;;;;;10.80;10.50;;;18.80;99.90;;;;;;5043145;28;20231;-87
2023/06/23 07:02:42;;;;;;;10.88;10.57;;;18.80;99.90;;;;;;5051706;28;20231;-87
2023/06/23 07:05:10;;;;;;;10.57;10.27;;;18.70;99.90;;;;;;5042803;28;20223;-86
2023/06/23 07:08:03;;;;;;;10.30;10.00;;;18.80;99.90;;;;;;5042433;28;20266;-88
2023/06/23 07:10:43;;;;;;;10.20;9.90;;;18.80;99.90;;;;;;5040247;28;20234;-87
2023/06/23 07:13:13;;;;;;;10.18;9.88;;;18.80;99.90;;;;;;5042413;28;20235;-87
2023/06/23 07:15:53;;;;;;;10.43;10.13;;;18.80;99.90;;;;;;5041168;28;20227;-87
2023/06/23 07:18:23;;;;;;;10.70;10.40;;;18.70;99.90;;;;;;5042136;28;20253;-87
2023/06/23 07:20:51;;;;;;;10.88;10.57;;;18.80;99.90;;;;;;5061792;22;20301;-78
2023/06/23 07:23:19;;;;;;;10.65;10.35;;;18.70;99.90;;;;;;5039351;28;20239;-78
2023/06/23 07:25:47;;;;;;;10.80;10.50;;;18.70;99.90;;;;;;5040753;28;20241;-77
2023/06/23 07:28:14;;;;;;;11.02;10.73;;;18.70;99.90;;;;;;5041783;28;20224;-77
2023/06/23 07:30:41;;;;;;;11.13;10.82;;;18.70;99.90;;;;;;5041367;28;20248;-77
2023/06/23 07:33:09;;;;;;;10.80;10.50;;;18.70;99.90;;;;;;5041197;28;20232;-78
2023/06/23 07:35:36;;;;;;;11.00;10.70;;;18.60;99.90;;;;;;5039603;28;20241;-77
2023/06/23 07:38:04;;;;;;;10.90;10.60;;;18.60;99.90;;;;;;5043034;28;20229;-77
2023/06/23 07:40:33;;;;;;;11.00;10.70;;;18.60;99.90;;;;;;5040759;28;20263;-78
2023/06/23 07:43:01;;;;;;;11.10;10.80;;;18.60;99.90;;;;;;5039004;28;20259;-78
2023/06/23 07:45:29;;;;;;;10.65;10.35;;;18.60;99.90;;;;;;5039706;28;20235;-78
2023/06/23 07:47:56;;;;;;;10.60;10.30;;;18.60;99.90;;;;;;5039594;28;20223;-78
2023/06/23 07:50:26;;;;;;;10.70;10.40;;;18.60;99.90;;;;;;5038727;28;20330;-78
2023/06/23 07:52:56;;;;;;;10.70;10.40;;;18.60;99.90;;;;;;5039525;28;20265;-82
2023/06/23 07:55:24;;;;;;;10.88;10.57;;;18.60;99.90;;;;;;5039245;28;20239;-78
2023/06/23 07:57:53;;;;;;;10.88;10.57;;;18.50;99.90;;;;;;5037920;28;20224;-78
2023/06/23 08:00:21;;;;;;;10.85;10.55;;;18.50;99.90;;;;;;5038055;28;20231;-78
2023/06/23 08:02:49;;;;;;;11.05;10.75;;;18.40;99.90;;;;;;5038854;28;20318;-77
2023/06/23 08:05:16;;;;;;;10.85;10.55;;;18.40;99.90;;;;;;5037509;28;20233;-78
2023/06/23 08:07:44;;;;;;;11.63;11.23;;;18.20;99.90;;;;;;5039322;28;20221;-79
2023/06/23 08:10:12;;;;;;;11.48;11.07;;;18.10;99.90;;;;;;5038082;28;20243;-77
2023/06/23 08:12:39;;;;;;;10.65;10.35;;;18.00;99.90;;;;;;5038276;28;20231;-77
2023/06/23 08:15:10;;;;;;;10.90;10.60;;;17.90;99.90;;;;;;5037394;28;20232;-77
2023/06/23 08:17:37;;;;;;;10.70;10.40;;;17.80;99.90;;;;;;5037063;28;20239;-77
2023/06/23 08:20:07;;;;;;;10.85;10.55;;;17.80;99.90;;;;;;5036765;28;20274;-76
2023/06/23 08:22:34;;;;;;;10.88;10.57;;;17.80;99.90;;;;;;5039993;28;20295;-78
2023/06/23 08:25:02;;;;;;;10.10;9.80;;;17.90;99.90;;;;;;5040267;28;20246;-77
2023/06/23 08:27:30;;;;;;;10.25;9.95;;;18.00;99.90;;;;;;5040134;28;20292;-78
2023/06/23 08:29:57;;;;;;;10.00;9.70;;;18.00;99.90;;;;;;5040548;28;20241;-77
2023/06/23 08:32:26;;;;;;;10.10;9.80;;;18.10;99.90;;;;;;5040219;28;20261;-77
2023/06/23 08:34:53;;;;;;;10.15;9.85;;;18.20;99.90;;;;;;5046214;28;20234;-75
2023/06/23 08:37:21;;;;;;;10.13;9.82;;;18.30;99.90;;;;;;5045828;28;20384;-77
2023/06/23 08:39:48;;;;;;;10.68;10.38;;;18.50;99.90;;;;;;5054169;28;20314;-78
2023/06/23 08:42:16;;;;;;;10.80;10.50;;;18.50;99.90;;;;;;5043520;28;20228;-78
2023/06/23 08:44:46;;;;;;;10.70;10.40;;;18.60;99.90;;;;;;5041115;28;20326;-77
2023/06/23 08:47:15;;;;;;;10.90;10.60;;;18.60;99.90;;;;;;5040843;28;20228;-79
2023/06/23 08:49:46;;;;;;;10.52;10.23;;;18.70;99.90;;;;;;5040703;28;20262;-79
2023/06/23 08:52:17;;;;;;;10.45;10.15;;;18.60;99.90;;;;;;5042834;28;20310;-78
2023/06/23 08:54:44;;;;;;;10.55;10.25;;;18.60;99.90;;;;;;5040267;28;20238;-78
2023/06/23 08:57:12;;;;;;;10.70;10.40;;;18.50;99.90;;;;;;5040269;28;20250;-77
2023/06/23 08:59:41;;;;;;;10.80;10.50;;;18.50;99.90;;;;;;5040587;28;20301;-78
2023/06/23 09:02:09;;;;;;;10.75;10.45;;;18.50;99.90;;;;;;5040510;28;20231;-77
2023/06/23 09:04:36;;;;;;;10.88;10.57;;;18.50;99.90;;;;;;5039902;28;20239;-77
2023/06/23 09:07:06;;;;;;;10.40;10.10;;;18.60;99.90;;;;;;5040036;28;20232;-77
2023/06/23 09:09:34;;;;;;;10.30;10.00;;;18.70;99.90;;;;;;5040602;28;20322;-77
2023/06/23 09:12:02;;;;;;;10.55;10.25;;;18.80;99.90;;;;;;5041099;28;20231;-78
2023/06/23 09:14:31;;;;;;;10.40;10.10;;;18.80;99.90;;;;;;5043112;28;20350;-77
2023/06/23 09:16:59;;;;;;;10.80;10.50;;;18.90;99.90;;;;;;5046563;28;20291;-77
2023/06/23 09:19:27;;;;;;;10.85;10.55;;;18.80;99.90;;;;;;5048917;28;20239;-77
2023/06/23 09:21:57;;;;;;;10.65;10.35;;;18.70;99.90;;;;;;5048231;28;20264;-76
2023/06/23 09:24:39;;;;;;;10.90;10.60;;;18.60;99.90;;;;;;5051091;28;20234;-77
2023/06/23 09:27:08;;;;;;;10.57;10.27;;;18.60;99.90;;;;;;5050648;28;20223;-77
2023/06/23 09:29:37;;;;;;;10.50;10.20;;;18.50;99.90;;;;;;5050494;28;20309;-77
2023/06/23 09:32:06;;;;;;;10.43;10.13;;;18.50;99.90;;;;;;5049647;28;20227;-75
2023/06/23 09:34:35;;;;;;;10.40;10.10;;;18.50;99.90;;;;;;5052906;28;20240;-77
2023/06/23 09:37:11;;;;;;;10.23;9.93;;;18.50;99.90;;;;;;5049711;28;20282;-77
2023/06/23 09:39:41;;;;;;;10.07;9.77;;;18.60;99.90;;;;;;5052323;28;20258;-77
2023/06/23 09:42:12;;;;;;;10.48;10.18;;;18.60;99.90;;;;;;5048227;28;20231;-77
2023/06/23 09:44:41;;;;;;;10.07;9.77;;;18.80;99.90;;;;;;5041829;28;20291;-77
2023/06/23 09:47:09;;;;;;;10.35;10.05;;;18.90;99.90;;;;;;5041353;28;20220;-78
2023/06/23 09:49:41;;;;;;;10.52;10.23;;;18.90;99.90;;;;;;5039308;28;20239;-79
2023/06/23 09:52:11;;;;;;;10.57;10.27;;;18.90;99.90;;;;;;5039679;28;20235;-78
2023/06/23 09:54:41;;;;;;;10.70;10.40;;;18.80;99.90;;;;;;5039431;28;20283;-79
2023/06/23 09:57:10;;;;;;;10.80;10.50;;;18.80;99.90;;;;;;5039516;28;20327;-79
2023/06/23 09:59:40;;;;;;;10.70;10.40;;;18.80;99.90;;;;;;5037704;28;20245;-77
2023/06/23 10:02:09;;;;;;;10.45;10.15;;;18.90;99.90;;;;;;5039148;28;20303;-78
2023/06/23 10:04:37;;;;;;;10.60;10.30;;;18.90;99.90;;;;;;5039210;28;20243;-78
2023/06/23 10:07:20;;;;;;;10.50;10.20;;;18.90;99.90;;;;;;5039967;28;20319;-79
2023/06/23 10:09:54;;;;;;;10.90;10.60;;;19.00;99.90;;;;;;5039109;28;20247;-77
2023/06/23 10:12:25;;;;;;;10.60;10.30;;;18.90;99.90;;;;;;5039768;28;20234;-78
2023/06/23 10:14:54;;;;;;;10.30;10.00;;;18.80;99.90;;;;;;5037777;28;20234;-78
2023/06/23 10:17:22;;;;;;;10.43;10.13;;;18.70;99.90;;;;;;5038819;28;20322;-78
2023/06/23 10:19:51;;;;;;;10.70;10.40;;;18.60;99.90;;;;;;5038323;28;20299;-79
2023/06/23 10:22:21;;;;;;;10.50;10.20;;;18.60;99.90;;;;;;5039665;28;20298;-78
2023/06/23 10:24:54;;;;;;;10.48;10.18;;;18.60;99.90;;;;;;5027477;28;20236;-78
2023/06/23 10:27:25;;;;;;;10.40;10.10;;;18.60;99.90;;;;;;5035914;28;20803;-77
2023/06/23 10:29:56;;;;;;;10.57;10.27;;;18.60;99.90;;;;;;5041878;28;20255;-78
2023/06/23 10:32:29;;;;;;;10.35;10.05;;;18.50;99.90;;;;;;5041147;28;20227;-78
2023/06/23 10:34:59;;;;;;;10.60;10.30;;;18.50;99.90;;;;;;5024031;28;20230;-78
2023/06/23 10:37:29;;;;;;;10.20;9.90;;;18.50;99.90;;;;;;5027289;28;20228;-77
2023/06/23 10:40:04;;;;;;;10.35;10.05;;;18.60;99.90;;;;;;5024892;28;20235;-78
2023/06/23 10:42:36;;;;;;;10.60;10.30;;;18.60;99.90;;;;;;5036688;28;20235;-78
2023/06/23 10:45:04;;;;;;;10.70;10.40;;;18.50;99.90;;;;;;5031726;28;20239;-78
2023/06/23 10:47:32;;;;;;;10.93;10.63;;;18.50;99.90;;;;;;5021268;28;20228;-79
2023/06/23 10:49:59;;;;;;;10.73;10.43;;;18.60;99.90;;;;;;5032799;28;20327;-75
2023/06/23 10:52:28;;;;;;;10.63;10.32;;;18.60;99.90;;;;;;5041150;28;20239;-76
2023/06/23 10:54:56;;;;;;;10.30;10.00;;;18.60;99.90;;;;;;5043031;28;20237;-76
2023/06/23 10:57:25;;;;;;;10.52;10.23;;;18.70;99.90;;;;;;5040853;28;20228;-77
2023/06/23 11:00:00;;;;;;;10.70;10.40;;;18.80;99.90;;;;;;5034760;28;20278;-77
2023/06/23 11:02:29;;;;;;;10.52;10.23;;;18.70;99.90;;;;;;5030009;28;20230;-77
2023/06/23 11:04:59;;;;;;;10.68;10.38;;;18.70;99.90;;;;;;5018348;28;20346;-77
2023/06/23 11:07:27;;;;;;;10.38;10.07;;;18.80;99.90;;;;;;5027509;28;20234;-77
2023/06/23 11:10:06;;;;;;;10.43;10.13;;;18.80;99.90;;;;;;5031474;28;20243;-77
2023/06/23 11:12:42;;;;;;;10.40;10.10;;;18.90;99.90;;;;;;5028367;28;20267;-77
2023/06/23 11:15:15;;;;;;;10.80;10.50;;;18.90;99.90;;;;;;5025569;28;20243;-76
2023/06/23 11:17:45;;;;;;;10.40;10.10;;;19.00;99.90;;;;;;5039108;28;20287;-78
2023/06/23 11:20:14;;;;;;;10.65;10.35;;;19.20;99.90;;;;;;5037722;28;20243;-77
2023/06/23 11:22:54;;;;;;;10.82;10.52;;;19.30;99.90;;;;;;5029779;28;20239;-77
2023/06/23 11:25:27;;;;;;;10.73;10.43;;;19.40;99.90;;;;;;5039366;28;20230;-78
2023/06/23 11:28:33;;;;;;;10.63;10.32;;;19.40;99.90;;;;;;5038431;28;20299;-77
2023/06/23 11:31:12;;;;;;;10.40;10.10;;;19.40;99.90;;;;;;5040778;28;20243;-78
2023/06/23 11:33:41;;;;;;;10.55;10.25;;;19.40;99.90;;;;;;5045551;28;20239;-77
2023/06/23 11:36:10;;;;;;;10.30;10.00;;;19.30;99.90;;;;;;5043944;28;20235;-78
2023/06/23 11:38:43;;;;;;;10.80;10.50;;;19.20;99.90;;;;;;5034954;28;20238;-78
2023/06/23 11:41:11;;;;;;;10.43;10.13;;;19.20;99.90;;;;;;5042859;28;20454;-79
2023/06/23 11:43:42;;;;;;;10.57;10.27;;;19.30;99.90;;;;;;5041833;28;20310;-77
2023/06/23 11:46:12;;;;;;;10.77;10.48;;;19.00;99.90;;;;;;5041810;28;20295;-77
2023/06/23 11:48:40;;;;;;;10.70;10.40;;;19.00;99.90;;;;;;5024432;28;20280;-77
2023/06/23 11:51:10;;;;;;;10.57;10.27;;;18.90;99.90;;;;;;5037892;28;20242;-76
2023/06/23 11:53:40;;;;;;;10.40;10.10;;;19.00;99.90;;;;;;5034758;28;20354;-78
2023/06/23 11:56:08;;;;;;;10.40;10.10;;;18.90;99.90;;;;;;5017602;28;20237;-77
2023/06/23 11:58:36;;;;;;;10.30;10.00;;;18.80;99.90;;;;;;5038585;28;20230;-78
2023/06/23 12:01:05;;;;;;;10.25;9.95;;;18.70;99.90;;;;;;5034450;28;20240;-78
2023/06/23 12:03:35;;;;;;;10.30;10.00;;;18.70;99.90;;;;;;5031223;28;20238;-77
2023/06/23 12:06:03;;;;;;;10.10;9.80;;;18.60;99.90;;;;;;5041213;28;20239;-78
2023/06/23 12:08:31;;;;;;;10.15;9.85;;;18.60;99.90;;;;;;5042193;28;20262;-75
2023/06/23 12:10:59;;;;;;;10.40;10.10;;;18.70;99.90;;;;;;5028254;28;20256;-77
2023/06/23 12:13:28;;;;;;;10.60;10.30;;;18.80;99.90;;;;;;5036937;28;20282;-78
2023/06/23 12:15:55;;;;;;;10.50;10.20;;;18.70;99.90;;;;;;5033204;28;20232;-76
2023/06/23 12:18:27;;;;;;;10.70;10.40;;;18.70;99.90;;;;;;5028947;28;20240;-78
2023/06/23 12:20:54;;;;;;;10.50;10.20;;;18.60;99.90;;;;;;5039991;28;20751;-77
2023/06/23 12:23:21;;;;;;;10.57;10.27;;;18.50;99.90;;;;;;5040508;28;20227;-80
2023/06/23 12:25:50;;;;;;;10.60;10.30;;;18.50;99.90;;;;;;5042711;28;20238;-78
2023/06/23 12:28:20;;;;;;;10.75;10.45;;;18.40;99.90;;;;;;5049556;28;20227;-78
2023/06/23 12:30:50;;;;;;;10.82;10.52;;;18.30;99.90;;;;;;5041764;28;20270;-78
2023/06/23 12:33:22;;;;;;;10.63;10.32;;;18.40;99.90;;;;;;5041147;28;20223;-77
2023/06/23 12:36:03;;;;;;;10.60;10.30;;;18.30;99.90;;;;;;5034270;28;20235;-78
2023/06/23 12:38:32;;;;;;;10.27;9.98;;;18.20;99.90;;;;;;5041657;28;20286;-78
2023/06/23 12:41:15;;;;;;;10.00;9.70;;;18.20;99.90;;;;;;5027219;28;20231;-78
2023/06/23 12:43:44;;;;;;;10.45;10.15;;;18.10;99.90;;;;;;5038097;28;20272;-78
2023/06/23 12:46:13;;;;;;;10.13;9.82;;;18.10;99.90;;;;;;5032453;28;20235;-78
2023/06/23 12:48:41;;;;;;;10.40;10.10;;;18.10;99.90;;;;;;5025958;28;20288;-77
2023/06/23 12:51:10;;;;;;;10.35;10.05;;;18.10;99.90;;;;;;5026992;28;20238;-78
2023/06/23 12:53:39;;;;;;;10.30;10.00;;;18.10;99.90;;;;;;5030993;28;20259;-79
2023/06/23 12:56:07;;;;;;;10.27;9.98;;;18.10;99.90;;;;;;5026777;28;20235;-79
2023/06/23 12:58:38;;;;;;;10.45;10.15;;;18.10;99.90;;;;;;5026346;28;20244;-80
2023/06/23 13:01:06;;;;;;;10.82;10.52;;;18.10;99.90;;;;;;5025859;28;20263;-78
2023/06/23 13:03:33;;;;;;;10.93;10.63;;;18.20;99.90;;;;;;5022915;28;20235;-78
2023/06/23 13:06:01;;;;;;;10.40;10.10;;;18.20;99.90;;;;;;5027412;28;20314;-78
2023/06/23 13:08:33;;;;;;;10.80;10.50;;;18.00;99.90;;;;;;5036818;28;20295;-77
2023/06/23 13:11:18;;;;;;;10.77;10.48;;;18.00;99.90;;;;;;5028957;28;20243;-78
2023/06/23 13:13:45;;;;;;;10.73;10.43;;;18.00;99.90;;;;;;5022907;28;20251;-77
2023/06/23 13:16:13;;;;;;;10.90;10.60;;;17.80;99.90;;;;;;5034994;28;20223;-78
2023/06/23 13:18:43;;;;;;;11.10;10.80;;;17.70;99.90;;;;;;5020508;28;20339;-77
2023/06/23 13:21:11;;;;;;;10.50;10.20;;;17.70;99.90;;;;;;5027190;28;20271;-78
2023/06/23 13:23:40;;;;;;;10.65;10.35;;;17.70;99.90;;;;;;5036046;28;20227;-78
2023/06/23 13:26:08;;;;;;;10.50;10.20;;;17.80;99.90;;;;;;5046224;28;20239;-78
2023/06/23 13:28:36;;;;;;;10.40;10.10;;;17.80;99.90;;;;;;5031540;28;20227;-79
2023/06/23 13:31:06;;;;;;;10.30;10.00;;;17.80;99.90;;;;;;5032137;28;20260;-75
2023/06/23 13:33:37;;;;;;;10.40;10.10;;;17.80;99.90;;;;;;5036252;28;20235;-78
2023/06/23 13:36:05;;;;;;;10.13;9.82;;;17.90;99.90;;;;;;5030613;28;20246;-79
2023/06/23 13:38:32;;;;;;;9.95;9.65;;;17.90;99.90;;;;;;5028814;28;20230;-79
2023/06/23 13:41:01;;;;;;;10.50;10.20;;;17.90;99.90;;;;;;5039237;28;20323;-79
2023/06/23 13:49:49;;;;;;;10.25;9.95;;;17.70;99.90;;;;;;5024354;28;20208;-88
2023/06/23 14:13:45;;;;;;;;;;;;;;;;;;;;;
2023/06/23 14:19:53;;;;;;;10.60;10.30;;;18.00;99.90;;;;;;5022729;28;20235;-89
2023/06/23 14:22:50;;;;;;;9.95;9.65;;;18.10;99.90;;;;;;5024727;28;20274;-89
2023/06/23 14:32:25;;;;;;;10.80;10.50;;;18.10;99.90;;;;;;5013540;28;20252;-88
2023/06/23 14:38:23;;;;;;;10.75;10.45;;;18.20;99.90;;;;;;5005449;28;20213;-89
2023/06/23 14:44:55;;;;;;;10.40;10.10;;;18.20;99.90;;;;;;4990000;28;20231;-85
2023/06/23 14:47:42;;;;;;;;;;;;;;;;;;;;;
2023/06/23 14:53:22;;;;;;;10.15;9.85;;;18.40;99.90;;;;;;5028813;28;20238;-86
2023/06/23 14:56:35;;;;;;;10.30;10.00;;;18.40;99.90;;;;;;5040499;28;20274;-89
2023/06/23 15:06:59;;;;;;;10.40;10.10;;;18.40;99.90;;;;;;5018200;28;20279;-86
2023/06/23 15:17:08;;;;;;;;;;;;;;;;;;;;;
2023/06/23 16:06:57;;;;;;;10.20;9.90;;;17.90;99.90;;;;;;5143715;22;20344;-89
2023/06/23 16:10:00;;;;;;;10.23;9.93;;;17.80;99.90;;;;;;5038004;28;20286;-87
2023/06/23 16:12:59;;;;;;;10.07;9.77;;;17.80;99.90;;;;;;5025249;28;20220;-84
2023/06/23 16:19:17;;;;;;;10.25;9.95;;;17.80;99.90;;;;;;5027074;28;20258;-88
2023/06/23 16:21:57;;;;;;;10.40;10.10;;;17.90;99.90;;;;;;4943785;28;20314;-88
2023/06/23 16:24:27;;;;;;;10.23;9.93;;;17.80;99.90;;;;;;5025959;28;20309;-89
2023/06/23 16:52:09;;;;;;;10.48;10.18;;;16.50;99.90;;;;;;4816423;29;20219;-89
2023/06/23 16:59:08;;;;;;;9.80;9.50;;;16.30;99.90;;;;;;4992513;28;20290;-88
2023/06/23 17:18:43;;;;;;;9.50;9.20;;;16.00;99.90;;;;;;4946066;28;20213;-90
2023/06/23 17:21:17;;;;;;;9.50;9.20;;;16.10;99.90;;;;;;5041143;28;20239;-89
2023/06/23 17:23:45;;;;;;;9.43;9.13;;;16.10;99.90;;;;;;5044549;28;20238;-89
2023/06/23 17:26:15;;;;;;;9.55;9.25;;;16.10;99.90;;;;;;5044162;28;20305;-89
2023/06/23 17:28:53;;;;;;;9.50;9.20;;;16.10;99.90;;;;;;5045208;28;20224;-90
2023/06/23 17:32:14;;;;;;;9.52;9.23;;;16.10;99.90;;;;;;5046183;28;20234;-90
2023/06/23 17:42:57;;;;;;;9.90;9.60;;;16.30;99.90;;;;;;5004133;28;20316;-90
2023/06/23 18:11:34;;;;;;;;;;;;;;;;;;;;;
2023/06/23 18:18:17;;;;;;;;;;;;;;;;;;;;;
2023/06/23 18:25:03;;;;;;;9.70;9.40;;;16.80;99.90;;;;;;5045744;28;20219;-87
2023/06/23 18:27:39;;;;;;;9.35;9.05;;;16.90;99.90;;;;;;5048439;28;20233;-86
2023/06/23 18:32:56;;;;;;;9.60;9.30;;;16.90;99.90;;;;;;5047004;28;20227;-86
2023/06/23 18:35:24;;;;;;;9.60;9.30;;;17.00;99.90;;;;;;5044908;28;20279;-87
2023/06/23 18:37:54;;;;;;;9.63;9.32;;;17.00;99.90;;;;;;5045774;28;20262;-87
2023/06/23 18:40:42;;;;;;;9.50;9.20;;;17.00;99.90;;;;;;5052794;28;20223;-89
2023/06/23 18:43:32;;;;;;;9.82;9.52;;;17.10;99.90;;;;;;5030657;28;20236;-90
2023/06/23 18:50:23;;;;;;;10.02;9.73;;;17.10;99.90;;;;;;5027517;28;20259;-89
2023/06/23 18:52:51;;;;;;;9.88;9.57;;;17.10;99.90;;;;;;5014393;28;20236;-83
2023/06/23 18:55:19;;;;;;;9.85;9.55;;;17.20;99.90;;;;;;5028307;28;20306;-84
2023/06/23 18:57:59;;;;;;;9.68;9.38;;;17.20;99.90;;;;;;5027168;28;20228;-83
2023/06/23 19:00:27;;;;;;;9.80;9.50;;;17.20;99.90;;;;;;5027544;28;20240;-84
2023/06/23 19:02:58;;;;;;;9.60;9.30;;;17.30;99.90;;;;;;5026637;28;20250;-83
2023/06/23 19:05:26;;;;;;;9.70;9.40;;;17.30;99.90;;;;;;5026995;28;20231;-84
2023/06/23 19:07:55;;;;;;;9.75;9.45;;;17.40;99.90;;;;;;5026299;28;20239;-84
2023/06/23 19:10:25;;;;;;;10.00;9.70;;;17.40;99.90;;;;;;5026599;28;20232;-83
2023/06/23 19:13:04;;;;;;;9.77;9.48;;;17.50;99.90;;;;;;5028104;28;20251;-84
2023/06/23 19:15:32;;;;;;;10.02;9.73;;;17.50;99.90;;;;;;5030854;28;20228;-84
2023/06/23 19:18:20;;;;;;;;;;;;;;;;;;;;;
2023/06/23 19:24:31;;;;;;;10.20;9.90;;;17.50;99.90;;;;;;5024410;28;20251;-86
2023/06/23 19:44:52;;;;;;;9.75;9.45;;;17.20;99.90;;;;;;5085679;22;20234;-78
2023/06/23 19:47:22;;;;;;;9.73;9.43;;;17.20;99.90;;;;;;5059681;28;20231;-78
2023/06/23 19:49:50;;;;;;;9.50;9.20;;;17.10;99.90;;;;;;5058644;28;20227;-79
2023/06/23 19:52:18;;;;;;;9.45;9.15;;;17.10;99.90;;;;;;5060423;28;20253;-79
2023/06/23 19:54:46;;;;;;;9.68;9.38;;;17.00;99.90;;;;;;5059765;28;20237;-79
2023/06/23 19:57:13;;;;;;;9.70;9.40;;;17.00;99.90;;;;;;5060380;28;20231;-78
2023/06/23 19:59:40;;;;;;;9.40;9.10;;;17.10;99.90;;;;;;5060861;28;20241;-79
2023/06/23 20:02:08;;;;;;;9.35;9.05;;;17.10;99.90;;;;;;5059867;28;20330;-79
2023/06/23 20:04:37;;;;;;;9.50;9.20;;;17.20;99.90;;;;;;5058708;28;20237;-77
2023/06/23 20:07:06;;;;;;;9.48;9.18;;;17.20;99.90;;;;;;5059159;28;20234;-78
2023/06/23 20:09:33;;;;;;;9.75;9.45;;;17.30;99.90;;;;;;5060481;28;20314;-79
2023/06/23 20:12:01;;;;;;;9.73;9.43;;;17.30;99.90;;;;;;5067959;28;20247;-79
2023/06/23 20:14:28;;;;;;;9.73;9.43;;;17.30;99.90;;;;;;5075069;28;20286;-79
2023/06/23 20:16:56;;;;;;;9.98;9.68;;;17.30;99.90;;;;;;5067044;28;20261;-78
2023/06/23 20:19:24;;;;;;;9.98;9.68;;;17.30;99.90;;;;;;5064385;28;20238;-79
2023/06/23 20:21:53;;;;;;;10.00;9.70;;;17.30;99.90;;;;;;5063889;28;20293;-79
2023/06/23 20:24:20;;;;;;;9.80;9.50;;;17.30;99.90;;;;;;5063663;28;20257;-79
2023/06/23 20:26:48;;;;;;;9.70;9.40;;;17.30;99.90;;;;;;5064381;28;20231;-79
2023/06/23 20:29:19;;;;;;;9.80;9.50;;;17.30;99.90;;;;;;5063636;28;20230;-78
2023/06/23 20:31:47;;;;;;;9.70;9.40;;;17.30;99.90;;;;;;5063256;28;20215;-77
2023/06/23 20:34:14;;;;;;;9.90;9.60;;;17.30;99.90;;;;;;5061204;28;20235;-78
2023/06/23 20:36:44;;;;;;;9.82;9.52;;;17.20;99.90;;;;;;5062165;28;20244;-78
2023/06/23 20:39:13;;;;;;;9.95;9.65;;;17.30;99.90;;;;;;5061496;28;20285;-79
2023/06/23 20:41:41;;;;;;;9.68;9.38;;;17.30;99.90;;;;;;5062790;28;20274;-79
2023/06/23 20:44:09;;;;;;;9.88;9.57;;;17.40;99.90;;;;;;5063042;28;20243;-79
2023/06/23 20:46:37;;;;;;;9.93;9.63;;;17.40;99.90;;;;;;5063466;28;20245;-79
2023/06/23 20:49:04;;;;;;;10.00;9.70;;;17.30;99.90;;;;;;5063779;28;20314;-79
2023/06/23 20:51:32;;;;;;;9.73;9.43;;;17.20;99.90;;;;;;5061196;28;20230;-77
2023/06/23 20:53:59;;;;;;;9.90;9.60;;;17.10;99.90;;;;;;5062444;28;20231;-79
2023/06/23 20:56:28;;;;;;;9.88;9.57;;;17.10;99.90;;;;;;5063742;28;20245;-79
2023/06/23 20:58:59;;;;;;;9.80;9.50;;;17.10;99.90;;;;;;5065186;28;20290;-79
2023/06/23 21:01:27;;;;;;;9.90;9.60;;;17.20;99.90;;;;;;5061541;28;20991;-79
2023/06/23 21:03:54;;;;;;;9.45;9.15;;;17.30;99.90;;;;;;5064559;28;20319;-78
2023/06/23 21:06:22;;;;;;;10.00;9.70;;;17.30;99.90;;;;;;5062906;28;20237;-78
2023/06/23 21:08:49;;;;;;;9.80;9.50;;;17.30;99.90;;;;;;5061873;28;20231;-78
2023/06/23 21:11:17;;;;;;;9.48;9.18;;;17.30;99.90;;;;;;5060063;28;20230;-79
2023/06/23 21:13:46;;;;;;;9.88;9.57;;;17.30;99.90;;;;;;5059863;28;20219;-79
2023/06/23 21:16:14;;;;;;;9.90;9.60;;;17.30;99.90;;;;;;5060537;28;20326;-78
2023/06/23 21:18:41;;;;;;;9.77;9.48;;;17.30;99.90;;;;;;5060767;28;20227;-79
2023/06/23 21:21:11;;;;;;;9.80;9.50;;;17.30;99.90;;;;;;5063453;28;20230;-78
2023/06/23 21:23:38;;;;;;;10.20;9.90;;;17.30;99.90;;;;;;5059054;28;20237;-77
2023/06/23 21:26:06;;;;;;;9.93;9.63;;;17.30;99.90;;;;;;5059714;28;20322;-77
2023/06/23 21:28:37;;;;;;;10.05;9.75;;;17.30;99.90;;;;;;5059356;28;20297;-77
2023/06/23 21:31:06;;;;;;;10.00;9.70;;;17.30;99.90;;;;;;5059438;28;20239;-77
2023/06/23 21:33:34;;;;;;;10.20;9.90;;;17.30;99.90;;;;;;5060094;28;20227;-77
2023/06/23 21:36:02;;;;;;;9.98;9.68;;;17.30;99.90;;;;;;5059876;28;20238;-78
2023/06/23 21:38:29;;;;;;;9.98;9.68;;;17.40;99.90;;;;;;5060484;28;20262;-79
2023/06/23 21:40:57;;;;;;;9.68;9.38;;;17.40;99.90;;;;;;5060282;28;20289;-79
2023/06/23 21:43:24;;;;;;;10.00;9.70;;;17.30;99.90;;;;;;5060906;28;20239;-79
2023/06/23 21:45:52;;;;;;;9.93;9.63;;;17.30;99.90;;;;;;5062019;28;20298;-79
2023/06/23 21:48:22;;;;;;;10.20;9.90;;;17.30;99.90;;;;;;5062651;28;20227;-80
2023/06/23 21:50:50;;;;;;;10.15;9.85;;;17.30;99.90;;;;;;5061633;28;20223;-79
2023/06/23 21:53:17;;;;;;;10.00;9.70;;;17.30;99.90;;;;;;5059923;28;20235;-78
2023/06/23 21:55:45;;;;;;;9.90;9.60;;;17.30;99.90;;;;;;5067412;28;20232;-79